createdAt,value
2022-09-18T00:01:54.227Z,61.74
2022-09-18T00:04:20.607Z,61.75
2022-09-18T00:06:46.970Z,61.83
2022-09-18T00:09:14.842Z,61.91
2022-09-18T00:11:45.464Z,61.77
2022-09-18T00:14:13.994Z,61.77
2022-09-18T00:16:40.833Z,61.63
2022-09-18T00:19:07.762Z,61.89
2022-09-18T00:21:35.911Z,62.12
2022-09-18T00:24:02.853Z,61.87
2022-09-18T00:26:29.328Z,62.08
2022-09-18T00:28:56.028Z,61.86
2022-09-18T00:31:27.848Z,62.19
2022-09-18T00:33:54.383Z,61.66
2022-09-18T00:36:21.248Z,61.39
2022-09-18T00:38:47.609Z,61.96
2022-09-18T00:41:15.326Z,62.22
2022-09-18T00:43:41.896Z,61.94
2022-09-18T00:46:26.495Z,62.10
2022-09-18T00:49:07.790Z,61.82
2022-09-18T00:51:34.703Z,61.88
2022-09-18T00:54:10.492Z,62.03
2022-09-18T00:56:37.723Z,61.93
2022-09-18T00:59:07.031Z,61.91
2022-09-18T01:01:33.468Z,61.67
2022-09-18T01:03:59.944Z,61.81
2022-09-18T01:06:26.271Z,61.92
2022-09-18T01:09:02.905Z,61.88
2022-09-18T01:11:46.304Z,61.77
2022-09-18T01:14:31.308Z,61.96
2022-09-18T01:17:05.218Z,61.94
2022-09-18T01:19:52.693Z,61.93
2022-09-18T01:22:31.408Z,61.83
2022-09-18T01:25:16.702Z,61.93
2022-09-18T01:27:58.519Z,61.95
2022-09-18T01:30:25.073Z,62.09
2022-09-18T01:32:57.526Z,61.69
2022-09-18T01:35:45.700Z,62.01
2022-09-18T01:38:16.228Z,61.81
2022-09-18T01:40:48.772Z,61.71
2022-09-18T01:43:16.769Z,62.11
2022-09-18T01:45:44.716Z,61.75
2022-09-18T01:48:12.687Z,61.92
2022-09-18T01:50:41.427Z,62.19
2022-09-18T01:53:21.411Z,61.84
2022-09-18T01:55:54.746Z,61.76
2022-09-18T01:58:23.124Z,62.14
2022-09-18T02:01:00.808Z,61.88
2022-09-18T02:03:30.209Z,62.04
2022-09-18T02:06:02.059Z,61.98
2022-09-18T02:08:32.230Z,62.13
2022-09-18T02:11:01.304Z,62.06
2022-09-18T02:13:30.218Z,62.35
2022-09-18T02:16:00.293Z,62.34
2022-09-18T02:18:31.983Z,62.22
2022-09-18T02:20:58.600Z,62.19
2022-09-18T02:23:25.798Z,62.25
2022-09-18T02:25:54.625Z,62.19
2022-09-18T02:28:23.037Z,62.28
2022-09-18T02:30:49.544Z,62.27
2022-09-18T02:33:26.475Z,61.74
2022-09-18T02:36:16.081Z,62.27
2022-09-18T02:38:48.606Z,62.16
2022-09-18T02:41:29.575Z,61.98
2022-09-18T02:44:02.189Z,62.18
2022-09-18T02:46:28.592Z,62.34
2022-09-18T02:49:14.711Z,61.90
2022-09-18T02:52:04.339Z,62.29
2022-09-18T02:54:36.636Z,61.91
2022-09-18T02:57:07.032Z,61.71
2022-09-18T02:59:35.122Z,61.91
2022-09-18T03:02:02.052Z,62.05
2022-09-18T03:04:28.535Z,62.09
2022-09-18T03:06:55.417Z,61.85
2022-09-18T03:09:22.242Z,62.27
2022-09-18T03:11:49.775Z,62.23
2022-09-18T03:14:16.111Z,62.17
2022-09-18T03:16:42.457Z,62.17
2022-09-18T03:19:09.107Z,61.82
2022-09-18T03:21:35.490Z,62.04
2022-09-18T03:24:02.530Z,62.06
2022-09-18T03:26:29.023Z,61.99
2022-09-18T03:28:55.372Z,62.12
2022-09-18T03:31:21.739Z,62.48
2022-09-18T03:33:48.234Z,62.35
2022-09-18T03:36:14.669Z,61.99
2022-09-18T03:38:41.743Z,61.97
2022-09-18T03:41:08.488Z,62.35
2022-09-18T03:43:35.783Z,62.43
2022-09-18T03:46:02.183Z,62.32
2022-09-18T03:48:28.555Z,61.91
2022-09-18T03:50:54.966Z,62.04
2022-09-18T03:53:21.283Z,62.14
2022-09-18T03:55:49.359Z,62.23
2022-09-18T03:58:15.732Z,61.90
2022-09-18T04:00:42.488Z,62.24
2022-09-18T04:03:08.978Z,62.01
2022-09-18T04:05:35.396Z,61.88
2022-09-18T04:08:02.010Z,62.06
2022-09-18T04:10:28.635Z,62.19
2022-09-18T04:12:55.002Z,61.96
2022-09-18T04:15:21.346Z,62.25
2022-09-18T04:17:47.746Z,62.10
2022-09-18T04:20:14.340Z,62.32
2022-09-18T04:22:40.789Z,61.94
2022-09-18T04:25:07.364Z,61.97
2022-09-18T04:27:34.898Z,62.12
2022-09-18T04:30:01.278Z,61.99
2022-09-18T04:32:27.624Z,62.09
2022-09-18T04:34:54.425Z,61.86
2022-09-18T04:37:20.771Z,61.79
2022-09-18T04:39:47.094Z,61.50
2022-09-18T04:42:13.503Z,61.99
2022-09-18T04:44:39.801Z,62.14
2022-09-18T04:47:06.446Z,61.55
2022-09-18T04:49:32.798Z,61.91
2022-09-18T04:51:59.140Z,61.57
2022-09-18T04:54:25.474Z,62.18
2022-09-18T04:56:51.791Z,61.62
2022-09-18T04:59:18.163Z,61.81
2022-09-18T05:01:44.558Z,61.85
2022-09-18T05:04:11.051Z,61.68
2022-09-18T05:06:37.377Z,61.89
2022-09-18T05:09:03.863Z,61.72
2022-09-18T05:11:30.232Z,61.91
2022-09-18T05:13:58.133Z,61.88
2022-09-18T05:16:24.630Z,62.08
2022-09-18T05:18:51.909Z,61.89
2022-09-18T05:21:18.651Z,61.68
2022-09-18T05:23:46.866Z,61.87
2022-09-18T05:26:13.811Z,62.17
2022-09-18T05:28:40.912Z,62.00
2022-09-18T05:31:07.384Z,61.81
2022-09-18T05:33:33.937Z,61.58
2022-09-18T05:36:00.468Z,61.75
2022-09-18T05:38:27.003Z,62.06
2022-09-18T05:40:53.319Z,61.73
2022-09-18T05:43:19.722Z,61.99
2022-09-18T05:45:46.492Z,61.76
2022-09-18T05:48:13.242Z,61.81
2022-09-18T05:50:40.255Z,61.61
2022-09-18T05:53:08.068Z,61.73
2022-09-18T05:55:34.696Z,62.25
2022-09-18T05:58:01.803Z,61.91
2022-09-18T06:00:29.018Z,61.78
2022-09-18T06:02:58.970Z,61.73
2022-09-18T06:05:25.958Z,61.95
2022-09-18T06:07:56.440Z,61.77
2022-09-18T06:10:25.763Z,61.60
2022-09-18T06:12:59.983Z,61.91
2022-09-18T06:15:26.432Z,61.54
2022-09-18T06:17:52.838Z,61.53
2022-09-18T06:20:20.025Z,61.60
2022-09-18T06:22:46.571Z,61.85
2022-09-18T06:25:12.947Z,61.22
2022-09-18T06:27:39.370Z,62.15
2022-09-18T06:30:06.103Z,61.76
2022-09-18T06:32:32.547Z,62.07
2022-09-18T06:34:59.083Z,61.55
2022-09-18T06:37:25.718Z,61.81
2022-09-18T06:39:52.197Z,61.79
2022-09-18T06:42:18.534Z,61.46
2022-09-18T06:44:44.880Z,61.97
2022-09-18T06:47:11.310Z,61.87
2022-09-18T06:49:37.687Z,61.73
2022-09-18T06:52:04.743Z,61.91
2022-09-18T06:54:31.112Z,61.75
2022-09-18T06:56:57.475Z,61.75
2022-09-18T06:59:23.813Z,61.85
2022-09-18T07:01:50.205Z,61.73
2022-09-18T07:04:16.583Z,61.77
2022-09-18T07:06:46.277Z,61.76
2022-09-18T07:09:13.060Z,61.56
2022-09-18T07:11:39.775Z,61.43
2022-09-18T07:14:07.787Z,61.83
2022-09-18T07:16:34.647Z,61.80
2022-09-18T07:19:01.319Z,61.39
2022-09-18T07:21:27.659Z,61.32
2022-09-18T07:23:53.990Z,61.78
2022-09-18T07:26:20.335Z,61.50
2022-09-18T07:28:46.713Z,61.63
2022-09-18T07:31:13.175Z,61.78
2022-09-18T07:33:40.565Z,61.49
2022-09-18T07:36:07.127Z,61.67
2022-09-18T07:38:34.450Z,61.73
2022-09-18T07:41:03.987Z,61.24
2022-09-18T07:43:30.953Z,61.26
2022-09-18T07:45:57.311Z,61.45
2022-09-18T07:48:24.296Z,61.01
2022-09-18T07:50:50.621Z,61.37
2022-09-18T07:53:18.535Z,61.20
2022-09-18T07:55:47.532Z,61.13
2022-09-18T07:58:14.094Z,61.40
2022-09-18T08:00:40.460Z,61.61
2022-09-18T08:03:11.795Z,61.64
2022-09-18T08:05:38.991Z,61.40
2022-09-18T08:08:06.233Z,61.21
2022-09-18T08:10:33.510Z,61.11
2022-09-18T08:12:59.926Z,61.10
2022-09-18T08:15:26.333Z,61.17
2022-09-18T08:17:52.784Z,61.37
2022-09-18T08:20:19.262Z,61.34
2022-09-18T08:22:46.847Z,61.22
2022-09-18T08:25:13.341Z,61.11
2022-09-18T08:27:40.217Z,61.32
2022-09-18T08:30:08.019Z,61.18
2022-09-18T08:32:34.676Z,61.41
2022-09-18T08:35:02.019Z,61.32
2022-09-18T08:37:28.891Z,61.34
2022-09-18T08:39:56.319Z,61.27
2022-09-18T08:42:35.159Z,61.18
2022-09-18T08:45:16.883Z,61.17
2022-09-18T08:47:50.487Z,61.17
2022-09-18T08:50:24.863Z,61.36
2022-09-18T08:52:56.264Z,61.42
2022-09-18T08:55:36.469Z,61.31
2022-09-18T08:58:06.986Z,61.38
2022-09-18T09:00:50.584Z,61.38
2022-09-18T09:03:19.774Z,61.11
2022-09-18T09:05:51.673Z,60.96
2022-09-18T09:08:28.033Z,61.14
2022-09-18T09:11:14.763Z,61.26
2022-09-18T09:14:02.559Z,61.13
2022-09-18T09:16:28.899Z,61.42
2022-09-18T09:19:02.447Z,61.34
2022-09-18T09:21:41.066Z,61.04
2022-09-18T09:24:21.699Z,60.99
2022-09-18T09:26:49.627Z,61.27
2022-09-18T09:29:21.935Z,60.75
2022-09-18T09:31:53.917Z,61.25
2022-09-18T09:34:24.004Z,61.09
2022-09-18T09:36:53.071Z,60.78
2022-09-18T09:39:39.538Z,60.90
2022-09-18T09:42:29.191Z,60.50
2022-09-18T09:45:15.807Z,61.02
2022-09-18T09:47:45.632Z,60.64
2022-09-18T09:50:35.284Z,61.17
2022-09-18T09:53:04.070Z,60.63
2022-09-18T09:55:32.888Z,60.14
2022-09-18T09:58:17.839Z,60.62
2022-09-18T10:01:01.262Z,60.30
2022-09-18T10:03:27.642Z,60.97
2022-09-18T10:06:26.838Z,60.90
2022-09-18T10:08:58.116Z,60.81
2022-09-18T10:11:24.481Z,60.99
2022-09-18T10:13:59.730Z,60.96
2022-09-18T10:16:38.233Z,61.04
2022-09-18T10:19:04.972Z,61.06
2022-09-18T10:21:34.925Z,60.84
2022-09-18T10:24:09.782Z,60.97
2022-09-18T10:26:45.283Z,60.94
2022-09-18T10:29:11.695Z,60.69
2022-09-18T10:31:57.230Z,60.56
2022-09-18T10:34:32.598Z,60.47
2022-09-18T10:36:59.152Z,60.29
2022-09-18T10:39:31.400Z,60.58
2022-09-18T10:42:02.618Z,60.17
2022-09-18T10:44:30.738Z,60.50
2022-09-18T10:47:00.276Z,60.27
2022-09-18T10:49:34.864Z,60.45
2022-09-18T10:52:40.307Z,60.47
2022-09-18T10:55:07.255Z,60.46
2022-09-18T10:57:43.732Z,60.44
2022-09-18T11:00:13.125Z,60.75
2022-09-18T11:02:41.502Z,60.63
2022-09-18T11:05:21.290Z,60.63
2022-09-18T11:07:49.661Z,60.88
2022-09-18T11:10:17.295Z,60.74
2022-09-18T11:12:50.265Z,60.68
2022-09-18T11:15:22.474Z,60.98
2022-09-18T11:17:51.298Z,60.78
2022-09-18T11:20:23.926Z,61.11
2022-09-18T11:22:50.752Z,61.16
2022-09-18T11:25:19.419Z,61.25
2022-09-18T11:27:49.960Z,61.34
2022-09-18T11:30:34.410Z,61.29
2022-09-18T11:33:09.868Z,61.13
2022-09-18T11:35:43.959Z,61.40
2022-09-18T11:38:11.983Z,61.47
2022-09-18T11:40:43.181Z,61.60
2022-09-18T11:43:17.167Z,61.52
2022-09-18T11:45:46.651Z,61.60
2022-09-18T11:48:35.673Z,61.50
2022-09-18T11:51:04.628Z,61.75
2022-09-18T11:53:43.308Z,61.73
2022-09-18T11:56:19.653Z,61.50
2022-09-18T11:58:49.055Z,61.76
2022-09-18T12:01:24.904Z,61.43
2022-09-18T12:04:09.915Z,61.56
2022-09-18T12:06:50.307Z,61.48
2022-09-18T12:09:34.304Z,61.85
2022-09-18T12:12:03.666Z,61.68
2022-09-18T12:14:37.898Z,61.75
2022-09-18T12:17:15.386Z,61.54
2022-09-18T12:19:48.254Z,61.59
2022-09-18T12:22:33.295Z,61.40
2022-09-18T12:24:59.651Z,61.49
2022-09-18T12:27:38.878Z,61.58
2022-09-18T12:30:18.895Z,61.58
2022-09-18T12:33:03.718Z,61.70
2022-09-18T12:35:33.240Z,61.82
2022-09-18T12:38:08.931Z,61.64
2022-09-18T12:41:00.695Z,61.85
2022-09-18T12:43:42.657Z,61.57
2022-09-18T12:46:14.928Z,61.87
2022-09-18T12:49:00.679Z,62.05
2022-09-18T12:51:40.353Z,62.22
2022-09-18T12:54:19.030Z,62.06
2022-09-18T12:56:48.414Z,61.86
2022-09-18T12:59:31.069Z,61.85
2022-09-18T13:02:12.601Z,61.82
2022-09-18T13:04:43.524Z,61.69
2022-09-18T13:07:19.084Z,61.69
2022-09-18T13:09:53.369Z,61.88
2022-09-18T13:12:24.483Z,62.06
2022-09-18T13:14:53.991Z,62.22
2022-09-18T13:17:24.069Z,62.15
2022-09-18T13:19:53.811Z,61.94
2022-09-18T13:22:21.411Z,61.95
2022-09-18T13:24:50.333Z,61.97
2022-09-18T13:27:17.791Z,62.14
2022-09-18T13:29:53.480Z,61.92
2022-09-18T13:32:24.598Z,61.91
2022-09-18T13:34:58.498Z,62.10
2022-09-18T13:37:26.198Z,62.04
2022-09-18T13:40:09.729Z,61.88
2022-09-18T13:42:41.264Z,61.75
2022-09-18T13:45:13.691Z,62.14
2022-09-18T13:48:00.722Z,61.99
2022-09-18T13:50:28.176Z,61.98
2022-09-18T13:52:55.680Z,62.35
2022-09-18T13:55:24.907Z,62.21
2022-09-18T13:57:57.721Z,61.91
2022-09-18T14:00:28.189Z,61.98
2022-09-18T14:03:27.213Z,61.93
2022-09-18T14:05:54.519Z,61.66
2022-09-18T14:08:24.199Z,61.91
2022-09-18T14:11:14.209Z,61.71
2022-09-18T14:13:41.645Z,61.82
2022-09-18T14:16:08.170Z,61.84
2022-09-18T14:18:54.804Z,62.10
2022-09-18T14:21:26.800Z,62.08
2022-09-18T14:24:03.832Z,62.26
2022-09-18T14:26:37.616Z,61.52
2022-09-18T14:29:21.943Z,62.14
2022-09-18T14:31:50.019Z,61.84
2022-09-18T14:34:35.481Z,62.05
2022-09-18T14:37:19.010Z,61.88
2022-09-18T14:39:45.823Z,61.85
2022-09-18T14:42:21.496Z,62.36
2022-09-18T14:44:52.432Z,62.12
2022-09-18T14:47:23.101Z,62.30
2022-09-18T14:49:49.825Z,62.19
2022-09-18T14:52:40.913Z,62.23
2022-09-18T14:55:10.530Z,62.17
2022-09-18T14:57:42.594Z,62.07
2022-09-18T15:00:16.834Z,62.43
2022-09-18T15:02:43.156Z,62.13
2022-09-18T15:05:10.487Z,62.11
2022-09-18T15:07:40.132Z,62.33
2022-09-18T15:10:08.002Z,62.19
2022-09-18T15:12:35.696Z,62.14
2022-09-18T15:15:20.888Z,62.05
2022-09-18T15:17:51.075Z,61.91
2022-09-18T15:20:17.522Z,62.40
2022-09-18T15:22:43.909Z,62.37
2022-09-18T15:25:14.246Z,61.98
2022-09-18T15:27:41.267Z,62.35
2022-09-18T15:30:14.245Z,62.14
2022-09-18T15:32:43.684Z,61.82
2022-09-18T15:35:17.188Z,61.78
2022-09-18T15:37:49.023Z,61.82
2022-09-18T15:40:18.067Z,61.91
2022-09-18T15:42:58.392Z,61.71
2022-09-18T15:45:26.161Z,62.28
2022-09-18T15:47:52.521Z,61.89
2022-09-18T15:50:19.676Z,62.01
2022-09-18T15:52:48.774Z,62.11
2022-09-18T15:55:35.796Z,61.39
2022-09-18T15:58:03.875Z,61.87
2022-09-18T16:00:35.183Z,61.47
2022-09-18T16:03:03.530Z,61.54
2022-09-18T16:05:30.954Z,61.65
2022-09-18T16:07:58.870Z,61.83
2022-09-18T16:10:34.232Z,62.08
2022-09-18T16:13:20.884Z,61.81
2022-09-18T16:15:47.791Z,61.72
2022-09-18T16:18:23.376Z,61.67
2022-09-18T16:20:49.824Z,61.73
2022-09-18T16:23:21.031Z,61.50
2022-09-18T16:26:02.445Z,61.10
2022-09-18T16:28:30.275Z,61.58
2022-09-18T16:30:56.806Z,61.24
2022-09-18T16:33:27.323Z,62.16
2022-09-18T16:36:04.124Z,61.51
2022-09-18T16:38:31.169Z,60.98
2022-09-18T16:40:58.272Z,61.53
2022-09-18T16:43:24.608Z,61.34
2022-09-18T16:45:51.258Z,61.92
2022-09-18T16:48:18.348Z,61.60
2022-09-18T16:50:45.178Z,62.29
2022-09-18T16:53:11.589Z,62.03
2022-09-18T16:55:40.990Z,62.12
2022-09-18T16:58:07.961Z,61.45
2022-09-18T17:00:35.296Z,62.06
2022-09-18T17:03:01.831Z,62.20
2022-09-18T17:05:28.182Z,61.50
2022-09-18T17:07:54.499Z,61.95
2022-09-18T17:10:20.891Z,61.55
2022-09-18T17:12:47.205Z,61.64
2022-09-18T17:15:13.589Z,61.45
2022-09-18T17:17:40.066Z,62.27
2022-09-18T17:20:06.951Z,61.44
2022-09-18T17:22:33.352Z,61.73
2022-09-18T17:24:59.769Z,61.54
2022-09-18T17:27:26.301Z,61.68
2022-09-18T17:29:52.638Z,61.69
2022-09-18T17:32:18.994Z,61.45
2022-09-18T17:34:45.323Z,61.74
2022-09-18T17:37:11.674Z,61.19
2022-09-18T17:39:38.006Z,61.71
2022-09-18T17:42:04.439Z,61.72
2022-09-18T17:44:34.435Z,60.95
2022-09-18T17:47:00.856Z,61.34
2022-09-18T17:49:29.875Z,61.51
2022-09-18T17:51:56.650Z,60.82
2022-09-18T17:54:23.033Z,60.92
2022-09-18T17:56:49.522Z,61.60
2022-09-18T17:59:16.004Z,61.95
2022-09-18T18:01:47.215Z,61.78
2022-09-18T18:04:13.893Z,61.96
2022-09-18T18:06:40.412Z,61.65
2022-09-18T18:09:09.571Z,61.70
2022-09-18T18:11:36.612Z,61.39
2022-09-18T18:14:04.262Z,61.33
2022-09-18T18:16:31.331Z,61.42
2022-09-18T18:18:59.077Z,61.37
2022-09-18T18:21:26.281Z,61.32
2022-09-18T18:23:57.059Z,61.11
2022-09-18T18:26:23.691Z,61.16
2022-09-18T18:28:50.357Z,60.91
2022-09-18T18:31:17.349Z,61.13
2022-09-18T18:33:43.974Z,61.05
2022-09-18T18:36:14.905Z,61.15
2022-09-18T18:38:42.601Z,60.96
2022-09-18T18:41:09.391Z,61.11
2022-09-18T18:43:36.782Z,61.20
2022-09-18T18:46:05.183Z,61.08
2022-09-18T18:48:34.496Z,61.22
2022-09-18T18:51:05.085Z,61.08
2022-09-18T18:53:32.037Z,61.24
2022-09-18T18:56:05.706Z,61.22
2022-09-18T18:58:32.487Z,61.07
2022-09-18T19:01:10.504Z,61.07
2022-09-18T19:03:42.977Z,60.99
2022-09-18T19:06:13.123Z,61.16
2022-09-18T19:08:40.059Z,61.17
2022-09-18T19:11:06.837Z,61.31
2022-09-18T19:13:44.242Z,61.06
2022-09-18T19:16:11.790Z,61.41
2022-09-18T19:18:38.476Z,61.40
2022-09-18T19:21:05.338Z,60.68
2022-09-18T19:23:31.696Z,60.93
2022-09-18T19:26:00.090Z,61.13
2022-09-18T19:28:30.040Z,61.42
2022-09-18T19:31:04.030Z,61.45
2022-09-18T19:33:31.032Z,61.41
2022-09-18T19:36:01.846Z,61.45
2022-09-18T19:38:28.251Z,61.83
2022-09-18T19:40:55.850Z,61.55
2022-09-18T19:43:27.886Z,61.53
2022-09-18T19:45:54.442Z,60.80
2022-09-18T19:48:23.240Z,61.17
2022-09-18T19:50:50.009Z,60.73
2022-09-18T19:53:16.468Z,61.02
2022-09-18T19:55:47.523Z,61.17
2022-09-18T19:58:15.489Z,61.20
2022-09-18T20:00:43.550Z,61.06
2022-09-18T20:03:10.498Z,61.04
2022-09-18T20:05:37.419Z,60.94
2022-09-18T20:08:06.310Z,60.98
2022-09-18T20:10:33.677Z,61.00
2022-09-18T20:13:00.122Z,61.29
2022-09-18T20:15:26.591Z,61.08
2022-09-18T20:17:55.924Z,61.19
2022-09-18T20:20:22.648Z,60.99
2022-09-18T20:22:52.656Z,60.70
2022-09-18T20:25:22.389Z,61.00
2022-09-18T20:27:51.055Z,60.91
2022-09-18T20:30:17.880Z,61.03
2022-09-18T20:32:44.331Z,60.86
2022-09-18T20:35:10.847Z,61.00
2022-09-18T20:37:37.360Z,61.25
2022-09-18T20:40:05.653Z,61.25
2022-09-18T20:42:33.173Z,61.32
2022-09-18T20:45:02.496Z,60.75
2022-09-18T20:47:36.195Z,61.25
2022-09-18T20:50:06.821Z,60.73
2022-09-18T20:52:37.233Z,61.27
2022-09-18T20:55:08.847Z,60.50
2022-09-18T20:57:38.807Z,61.10
2022-09-18T21:00:06.376Z,60.83
2022-09-18T21:02:35.383Z,61.24
2022-09-18T21:05:08.534Z,60.73
2022-09-18T21:07:35.023Z,60.34
2022-09-18T21:10:01.664Z,61.21
2022-09-18T21:12:32.141Z,60.42
2022-09-18T21:15:02.322Z,60.16
2022-09-18T21:17:30.483Z,60.52
2022-09-18T21:19:57.511Z,60.24
2022-09-18T21:22:23.970Z,60.86
2022-09-18T21:24:50.618Z,60.50
2022-09-18T21:27:17.019Z,60.52
2022-09-18T21:29:43.465Z,60.67
2022-09-18T21:32:10.580Z,60.68
2022-09-18T21:34:36.927Z,59.95
2022-09-18T21:37:04.770Z,60.58
2022-09-18T21:39:31.898Z,60.27
2022-09-18T21:41:58.887Z,60.10
2022-09-18T21:44:27.234Z,60.55
2022-09-18T21:46:54.596Z,60.08
2022-09-18T21:49:22.690Z,60.23
2022-09-18T21:51:49.417Z,60.40
2022-09-18T21:54:17.703Z,60.83
2022-09-18T21:56:44.874Z,60.50
2022-09-18T21:59:11.507Z,60.60
2022-09-18T22:01:38.242Z,60.30
2022-09-18T22:04:06.327Z,60.61
2022-09-18T22:06:35.891Z,60.75
2022-09-18T22:09:06.190Z,60.96
2022-09-18T22:11:37.047Z,60.30
2022-09-18T22:14:06.503Z,60.93
2022-09-18T22:16:33.359Z,60.83
2022-09-18T22:18:59.826Z,60.34
2022-09-18T22:21:28.133Z,61.06
2022-09-18T22:23:55.661Z,60.43
2022-09-18T22:26:23.374Z,60.39
2022-09-18T22:28:50.933Z,60.72
2022-09-18T22:31:18.044Z,60.21
2022-09-18T22:33:46.254Z,60.15
2022-09-18T22:36:13.346Z,60.28
2022-09-18T22:38:39.758Z,59.96
2022-09-18T22:41:06.914Z,60.37
2022-09-18T22:43:37.456Z,59.98
2022-09-18T22:46:08.515Z,60.63
2022-09-18T22:48:35.616Z,60.19
2022-09-18T22:51:04.830Z,60.55
2022-09-18T22:53:31.780Z,60.19
2022-09-18T22:56:03.408Z,60.60
2022-09-18T22:58:30.050Z,60.11
2022-09-18T23:00:56.495Z,60.34
2022-09-18T23:03:22.913Z,60.10
2022-09-18T23:05:49.387Z,60.25
2022-09-18T23:08:16.564Z,60.40
2022-09-18T23:10:42.937Z,60.51
2022-09-18T23:13:09.410Z,59.98
2022-09-18T23:15:36.449Z,60.49
2022-09-18T23:18:02.866Z,60.65
2022-09-18T23:20:29.354Z,60.78
2022-09-18T23:22:55.717Z,60.35
2022-09-18T23:25:22.154Z,60.71
2022-09-18T23:27:49.303Z,61.06
2022-09-18T23:30:15.950Z,60.80
2022-09-18T23:32:42.373Z,60.70
2022-09-18T23:35:08.851Z,60.88
2022-09-18T23:37:35.226Z,60.96
2022-09-18T23:40:01.810Z,60.52
2022-09-18T23:42:28.198Z,60.55
2022-09-18T23:44:54.626Z,61.01
2022-09-18T23:47:20.975Z,60.29
2022-09-18T23:49:47.527Z,60.59
2022-09-18T23:52:13.941Z,60.81
2022-09-18T23:54:40.366Z,60.60
2022-09-18T23:57:06.793Z,60.73
2022-09-18T23:59:33.256Z,59.91
